createdAt,value
2022-10-28T00:01:30.255Z,6.20
2022-10-28T00:04:01.144Z,5.77
2022-10-28T00:06:35.787Z,5.87
2022-10-28T00:09:08.139Z,5.63
2022-10-28T00:11:39.583Z,5.97
2022-10-28T00:14:08.784Z,5.33
2022-10-28T00:16:38.473Z,6.07
2022-10-28T00:19:08.913Z,5.33
2022-10-28T00:21:40.573Z,5.03
2022-10-28T00:24:11.203Z,5.93
2022-10-28T00:26:42.251Z,5.00
2022-10-28T00:29:13.331Z,5.43
2022-10-28T00:31:42.353Z,5.53
2022-10-28T00:34:15.302Z,5.47
2022-10-28T00:36:47.152Z,5.17
2022-10-28T00:39:17.621Z,4.63
2022-10-28T00:41:48.738Z,4.93
2022-10-28T00:44:54.373Z,4.20
2022-10-28T00:47:34.681Z,4.27
2022-10-28T00:50:37.013Z,4.60
2022-10-28T00:53:12.733Z,4.53
2022-10-28T00:55:41.417Z,4.13
2022-10-28T00:58:10.518Z,4.20
2022-10-28T01:00:38.885Z,5.03
2022-10-28T01:03:07.163Z,3.87
2022-10-28T01:05:38.836Z,4.63
2022-10-28T01:08:08.696Z,4.00
2022-10-28T01:11:05.073Z,4.67
2022-10-28T01:13:45.487Z,4.27
2022-10-28T01:16:29.509Z,3.97
2022-10-28T01:19:15.846Z,4.20
2022-10-28T01:22:05.761Z,4.57
2022-10-28T01:25:12.478Z,4.40
2022-10-28T01:28:21.919Z,4.10
2022-10-28T01:31:25.709Z,4.40
2022-10-28T01:34:00.425Z,4.40
2022-10-28T01:36:35.689Z,3.60
2022-10-28T01:39:15.069Z,3.93
2022-10-28T01:41:53.047Z,3.83
2022-10-28T01:44:30.073Z,4.60
2022-10-28T01:47:05.519Z,4.13
2022-10-28T01:49:42.385Z,4.37
2022-10-28T01:52:15.258Z,4.47
2022-10-28T01:54:49.151Z,4.23
2022-10-28T01:57:19.548Z,4.17
2022-10-28T01:59:49.770Z,4.13
2022-10-28T02:02:19.741Z,4.20
2022-10-28T02:04:47.990Z,3.93
2022-10-28T02:07:17.711Z,3.93
2022-10-28T02:10:04.919Z,3.97
2022-10-28T02:12:36.142Z,4.23
2022-10-28T02:15:38.175Z,4.03
2022-10-28T02:18:25.026Z,4.20
2022-10-28T02:20:57.052Z,4.07
2022-10-28T02:23:40.587Z,4.00
2022-10-28T02:26:16.618Z,3.70
2022-10-28T02:28:56.287Z,4.40
2022-10-28T02:31:29.348Z,3.83
2022-10-28T02:34:02.798Z,3.40
2022-10-28T02:36:36.932Z,3.87
2022-10-28T02:39:07.287Z,3.80
2022-10-28T02:41:42.762Z,3.80
2022-10-28T02:44:15.935Z,4.23
2022-10-28T02:46:48.936Z,4.23
2022-10-28T02:49:18.473Z,3.70
2022-10-28T02:51:52.336Z,4.30
2022-10-28T02:54:25.886Z,4.07
2022-10-28T02:57:00.410Z,3.70
2022-10-28T02:59:30.622Z,3.70
2022-10-28T03:01:58.970Z,3.87
2022-10-28T03:04:28.691Z,4.13
2022-10-28T03:06:56.908Z,4.77
2022-10-28T03:09:25.290Z,4.10
2022-10-28T03:11:53.529Z,3.90
2022-10-28T03:14:21.709Z,3.97
2022-10-28T03:16:49.925Z,3.60
2022-10-28T03:19:18.116Z,4.00
2022-10-28T03:21:47.759Z,4.43
2022-10-28T03:24:15.933Z,4.00
2022-10-28T03:26:44.289Z,4.73
2022-10-28T03:29:12.492Z,4.47
2022-10-28T03:31:40.774Z,4.43
2022-10-28T03:34:08.970Z,4.13
2022-10-28T03:36:37.293Z,3.93
2022-10-28T03:39:06.958Z,4.00
2022-10-28T03:41:35.282Z,4.30
2022-10-28T03:44:03.527Z,4.00
2022-10-28T03:46:35.062Z,4.30
2022-10-28T03:49:04.959Z,4.83
2022-10-28T03:51:33.201Z,4.27
2022-10-28T03:54:01.552Z,4.53
2022-10-28T03:56:31.113Z,3.80
2022-10-28T03:58:59.338Z,4.70
2022-10-28T04:01:27.715Z,4.00
2022-10-28T04:03:56.003Z,4.23
2022-10-28T04:06:24.580Z,4.40
2022-10-28T04:08:52.801Z,3.47
2022-10-28T04:11:21.077Z,4.30
2022-10-28T04:13:50.653Z,3.80
2022-10-28T04:16:18.908Z,4.03
2022-10-28T04:18:47.101Z,4.30
2022-10-28T04:21:15.354Z,4.97
2022-10-28T04:23:43.583Z,6.43
2022-10-28T04:26:11.960Z,6.53
2022-10-28T04:28:40.177Z,7.23
2022-10-28T04:31:10.141Z,6.80
2022-10-28T04:33:38.358Z,7.10
2022-10-28T04:36:07.235Z,7.23
2022-10-28T04:38:35.470Z,7.77
2022-10-28T04:41:03.873Z,7.83
2022-10-28T04:43:32.117Z,7.03
2022-10-28T04:46:05.839Z,7.73
2022-10-28T04:48:36.265Z,7.60
2022-10-28T04:51:05.246Z,7.73
2022-10-28T04:53:33.487Z,7.37
2022-10-28T04:56:01.957Z,7.30
2022-10-28T04:58:30.490Z,6.83
2022-10-28T05:00:58.874Z,6.73
2022-10-28T05:03:27.106Z,6.03
2022-10-28T05:05:56.691Z,5.73
2022-10-28T05:08:24.993Z,5.97
2022-10-28T05:10:53.208Z,5.10
2022-10-28T05:13:21.881Z,4.37
2022-10-28T05:15:51.585Z,5.77
2022-10-28T05:18:19.850Z,5.70
2022-10-28T05:20:52.754Z,6.20
2022-10-28T05:23:25.768Z,6.07
2022-10-28T05:25:55.506Z,5.50
2022-10-28T05:28:23.747Z,6.27
2022-10-28T05:30:51.954Z,6.13
2022-10-28T05:33:20.190Z,6.17
2022-10-28T05:35:48.427Z,5.83
2022-10-28T05:38:16.923Z,5.57
2022-10-28T05:40:46.570Z,5.40
2022-10-28T05:43:14.814Z,6.03
2022-10-28T05:45:43.123Z,5.77
2022-10-28T05:48:11.357Z,6.20
2022-10-28T05:50:39.617Z,6.17
2022-10-28T05:53:07.833Z,6.40
2022-10-28T05:55:36.125Z,8.50
2022-10-28T05:58:05.730Z,9.33
2022-10-28T06:00:34.212Z,12.07
2022-10-28T06:03:09.305Z,13.73
2022-10-28T06:05:37.953Z,8.80
2022-10-28T06:08:07.022Z,8.43
2022-10-28T06:10:35.763Z,9.93
2022-10-28T06:13:04.160Z,9.90
2022-10-28T06:15:32.523Z,9.20
2022-10-28T06:18:00.800Z,11.30
2022-10-28T06:20:29.035Z,9.00
2022-10-28T06:22:57.359Z,8.00
2022-10-28T06:25:26.995Z,7.57
2022-10-28T06:27:56.578Z,8.87
2022-10-28T06:30:28.967Z,9.77
2022-10-28T06:32:57.445Z,9.43
2022-10-28T06:35:25.841Z,9.27
2022-10-28T06:37:55.252Z,10.30
2022-10-28T06:40:24.921Z,10.60
2022-10-28T06:42:58.212Z,10.70
2022-10-28T06:45:28.607Z,9.63
2022-10-28T06:47:59.096Z,9.77
2022-10-28T06:50:28.039Z,9.60
2022-10-28T06:52:58.119Z,9.83
2022-10-28T06:55:26.758Z,8.13
2022-10-28T06:57:55.766Z,7.97
2022-10-28T07:00:24.436Z,10.07
2022-10-28T07:02:55.544Z,8.03
2022-10-28T07:05:26.820Z,8.70
2022-10-28T07:07:55.418Z,8.67
2022-10-28T07:10:24.178Z,8.00
2022-10-28T07:12:54.561Z,8.80
2022-10-28T07:15:23.147Z,7.27
2022-10-28T07:17:55.738Z,8.57
2022-10-28T07:20:26.362Z,8.00
2022-10-28T07:22:58.038Z,6.90
2022-10-28T07:25:26.584Z,7.53
2022-10-28T07:27:55.324Z,6.87
2022-10-28T07:30:24.149Z,6.97
2022-10-28T07:32:54.208Z,7.10
2022-10-28T07:35:22.724Z,7.47
2022-10-28T07:37:51.027Z,7.00
2022-10-28T07:40:19.469Z,7.97
2022-10-28T07:42:47.757Z,7.70
2022-10-28T07:45:17.494Z,8.10
2022-10-28T07:47:45.913Z,7.57
2022-10-28T07:50:15.638Z,6.57
2022-10-28T07:52:44.488Z,6.33
2022-10-28T07:55:13.389Z,5.57
2022-10-28T07:57:41.584Z,5.87
2022-10-28T08:00:11.267Z,6.07
2022-10-28T08:02:40.382Z,6.37
2022-10-28T08:05:09.576Z,6.23
2022-10-28T08:07:39.254Z,5.30
2022-10-28T08:10:08.655Z,5.27
2022-10-28T08:12:36.943Z,5.63
2022-10-28T08:15:06.567Z,5.00
2022-10-28T08:17:34.846Z,5.40
2022-10-28T08:20:03.145Z,5.70
2022-10-28T08:22:31.453Z,5.20
2022-10-28T08:25:01.155Z,5.60
2022-10-28T08:27:29.348Z,5.00
2022-10-28T08:29:57.611Z,5.23
2022-10-28T08:32:25.962Z,4.97
2022-10-28T08:34:54.198Z,4.57
2022-10-28T08:37:22.550Z,4.37
2022-10-28T08:39:50.909Z,4.00
2022-10-28T08:42:36.316Z,4.30
2022-10-28T08:45:27.072Z,4.23
2022-10-28T08:48:15.964Z,4.47
2022-10-28T08:50:50.455Z,4.50
2022-10-28T08:53:22.834Z,3.83
2022-10-28T08:55:53.790Z,3.93
2022-10-28T08:58:27.580Z,4.30
2022-10-28T09:00:59.938Z,4.17
2022-10-28T09:03:34.316Z,4.13
2022-10-28T09:06:07.554Z,3.73
2022-10-28T09:08:38.827Z,4.60
2022-10-28T09:12:03.283Z,3.73
2022-10-28T09:14:49.061Z,4.50
2022-10-28T09:17:21.111Z,4.37
2022-10-28T09:19:52.752Z,4.50
2022-10-28T09:22:26.914Z,4.70
2022-10-28T09:24:57.778Z,4.00
2022-10-28T09:27:47.392Z,3.60
2022-10-28T09:30:33.855Z,3.47
2022-10-28T09:33:12.832Z,4.23
2022-10-28T09:35:45.026Z,3.33
2022-10-28T09:38:22.062Z,3.90
2022-10-28T09:40:57.432Z,3.73
2022-10-28T09:43:31.302Z,3.80
2022-10-28T09:46:07.444Z,4.00
2022-10-28T09:48:39.580Z,3.80
2022-10-28T09:51:11.533Z,4.10
2022-10-28T09:53:47.735Z,4.57
2022-10-28T09:56:16.723Z,3.50
2022-10-28T09:58:48.669Z,3.67
2022-10-28T10:01:19.556Z,3.27
2022-10-28T10:03:50.698Z,3.90
2022-10-28T10:06:25.194Z,3.63
2022-10-28T10:08:55.968Z,3.40
2022-10-28T10:11:32.642Z,4.60
2022-10-28T10:14:08.707Z,3.10
2022-10-28T10:16:44.781Z,3.40
2022-10-28T10:19:13.334Z,3.60
2022-10-28T10:21:44.853Z,3.30
2022-10-28T10:24:30.956Z,3.17
2022-10-28T10:27:02.030Z,3.20
2022-10-28T10:29:32.232Z,2.93
2022-10-28T10:32:17.216Z,3.07
2022-10-28T10:34:57.931Z,3.30
2022-10-28T10:37:26.331Z,2.80
2022-10-28T10:40:06.013Z,3.20
2022-10-28T10:42:42.525Z,3.40
2022-10-28T10:45:26.722Z,3.40
2022-10-28T10:48:15.257Z,3.57
2022-10-28T10:50:45.721Z,4.13
2022-10-28T10:53:26.547Z,3.23
2022-10-28T10:56:01.322Z,3.33
2022-10-28T10:58:33.589Z,3.70
2022-10-28T11:01:05.307Z,3.93
2022-10-28T11:03:38.873Z,4.17
2022-10-28T11:06:22.954Z,4.77
2022-10-28T11:08:58.765Z,3.60
2022-10-28T11:11:34.798Z,4.40
2022-10-28T11:14:18.257Z,4.27
2022-10-28T11:16:51.685Z,4.57
2022-10-28T11:19:25.478Z,4.07
2022-10-28T11:22:13.075Z,4.30
2022-10-28T11:25:16.580Z,4.37
2022-10-28T11:28:01.576Z,4.23
2022-10-28T11:30:44.733Z,3.87
2022-10-28T11:33:34.065Z,3.90
2022-10-28T11:36:17.013Z,4.10
2022-10-28T11:39:19.972Z,4.60
2022-10-28T11:42:05.214Z,3.60
2022-10-28T11:44:46.702Z,3.27
2022-10-28T11:47:44.597Z,2.83
2022-10-28T11:50:36.882Z,2.37
2022-10-28T11:53:37.211Z,3.57
2022-10-28T11:56:14.085Z,3.60
2022-10-28T11:58:50.593Z,3.87
2022-10-28T12:01:40.964Z,3.03
2022-10-28T12:04:32.191Z,2.03
2022-10-28T12:07:22.055Z,1.80
2022-10-28T12:10:20.409Z,2.07
2022-10-28T12:13:00.593Z,1.80
2022-10-28T12:15:46.304Z,1.93
2022-10-28T12:18:25.285Z,1.80
2022-10-28T12:21:00.838Z,1.57
2022-10-28T12:23:31.058Z,1.87
2022-10-28T12:26:02.002Z,2.20
2022-10-28T12:28:35.291Z,2.23
2022-10-28T12:31:04.872Z,2.13
2022-10-28T12:33:41.887Z,2.10
2022-10-28T12:36:28.220Z,1.67
2022-10-28T12:39:02.256Z,2.50
2022-10-28T12:41:51.654Z,1.90
2022-10-28T12:44:22.747Z,1.90
2022-10-28T12:47:04.390Z,1.93
2022-10-28T12:49:45.252Z,2.20
2022-10-28T12:52:25.514Z,1.80
2022-10-28T12:55:03.225Z,1.53
2022-10-28T12:57:36.188Z,1.70
2022-10-28T13:00:11.107Z,1.87
2022-10-28T13:02:44.978Z,1.93
2022-10-28T13:05:30.537Z,1.57
2022-10-28T13:12:26.108Z,1.87
2022-10-28T13:15:40.252Z,1.90
2022-10-28T13:18:46.026Z,1.50
2022-10-28T13:21:26.222Z,1.80
2022-10-28T13:24:00.088Z,1.47
2022-10-28T13:26:31.629Z,1.60
2022-10-28T13:29:02.737Z,1.60
2022-10-28T13:31:42.196Z,1.80
2022-10-28T13:34:12.798Z,2.00
2022-10-28T13:36:43.372Z,2.87
2022-10-28T13:39:26.458Z,2.20
2022-10-28T13:42:45.947Z,1.87
2022-10-28T13:45:50.153Z,2.03
2022-10-28T13:48:48.018Z,2.00
2022-10-28T13:51:46.422Z,2.20
2022-10-28T13:54:29.963Z,2.37
2022-10-28T13:57:06.371Z,2.27
2022-10-28T13:59:53.597Z,1.93
2022-10-28T14:02:36.263Z,2.23
2022-10-28T14:05:10.064Z,2.37
2022-10-28T14:07:41.933Z,2.37
2022-10-28T14:10:22.773Z,2.10
2022-10-28T14:12:56.068Z,1.93
2022-10-28T14:15:28.294Z,2.10
2022-10-28T14:18:10.492Z,2.03
2022-10-28T14:21:01.678Z,2.00
2022-10-28T14:24:10.668Z,2.47
2022-10-28T14:27:42.579Z,2.40
2022-10-28T14:30:23.578Z,2.40
2022-10-28T14:33:01.877Z,2.37
2022-10-28T14:35:40.750Z,2.10
2022-10-28T14:39:07.436Z,2.00
2022-10-28T14:41:52.969Z,2.17
2022-10-28T14:44:47.582Z,2.30
2022-10-28T14:47:42.680Z,2.37
2022-10-28T14:50:20.879Z,2.00
2022-10-28T14:52:50.998Z,1.80
2022-10-28T14:55:26.434Z,2.17
2022-10-28T14:57:56.439Z,1.97
2022-10-28T15:00:28.984Z,2.10
2022-10-28T15:02:57.331Z,3.13
2022-10-28T15:05:32.795Z,2.23
2022-10-28T15:08:04.642Z,2.23
2022-10-28T15:10:35.289Z,2.83
2022-10-28T15:13:04.995Z,2.63
2022-10-28T15:15:35.802Z,2.73
2022-10-28T15:18:18.509Z,2.70
2022-10-28T15:20:46.791Z,3.13
2022-10-28T15:23:19.799Z,3.27
2022-10-28T15:26:06.202Z,3.13
2022-10-28T15:28:35.953Z,2.40
2022-10-28T15:31:04.198Z,2.43
2022-10-28T15:33:34.242Z,2.73
2022-10-28T15:36:17.987Z,2.90
2022-10-28T15:38:47.950Z,2.90
2022-10-28T15:41:42.611Z,3.33
2022-10-28T15:44:28.405Z,3.77
2022-10-28T15:46:58.442Z,4.60
2022-10-28T15:49:45.424Z,4.83
2022-10-28T15:52:41.387Z,4.23
2022-10-28T15:55:41.335Z,4.07
2022-10-28T15:58:36.754Z,3.70
2022-10-28T16:01:11.837Z,3.30
2022-10-28T16:03:46.115Z,3.90
2022-10-28T16:06:27.653Z,3.70
2022-10-28T16:09:18.771Z,3.67
2022-10-28T16:11:50.333Z,3.90
2022-10-28T16:14:34.917Z,3.53
2022-10-28T16:17:17.252Z,3.27
2022-10-28T16:19:51.873Z,4.00
2022-10-28T16:22:21.017Z,3.53
2022-10-28T16:24:50.166Z,3.43
2022-10-28T16:27:21.130Z,5.53
2022-10-28T16:29:50.417Z,4.87
2022-10-28T16:32:26.903Z,4.23
2022-10-28T16:34:55.209Z,4.07
2022-10-28T16:37:25.892Z,4.17
2022-10-28T16:39:54.547Z,3.23
2022-10-28T16:42:23.798Z,3.13
2022-10-28T16:44:52.486Z,3.40
2022-10-28T16:47:25.611Z,3.80
2022-10-28T16:49:57.666Z,4.43
2022-10-28T16:52:28.378Z,6.20
2022-10-28T16:54:57.311Z,5.77
2022-10-28T16:57:26.105Z,4.10
2022-10-28T16:59:54.699Z,3.63
2022-10-28T17:02:29.751Z,4.50
2022-10-28T17:04:58.822Z,5.40
2022-10-28T17:07:27.964Z,5.40
2022-10-28T17:09:56.949Z,5.83
2022-10-28T17:12:28.310Z,7.20
2022-10-28T17:14:56.598Z,7.23
2022-10-28T17:17:26.343Z,7.27
2022-10-28T17:19:54.601Z,6.13
2022-10-28T17:22:22.970Z,7.33
2022-10-28T17:24:51.281Z,6.80
2022-10-28T17:27:19.553Z,6.77
2022-10-28T17:29:48.063Z,7.03
2022-10-28T17:32:16.621Z,8.90
2022-10-28T17:34:46.324Z,10.17
2022-10-28T17:37:14.541Z,7.23
2022-10-28T17:39:43.380Z,6.70
2022-10-28T17:42:11.729Z,8.50
2022-10-28T17:44:40.029Z,7.97
2022-10-28T17:47:08.346Z,7.63
2022-10-28T17:49:36.684Z,7.93
2022-10-28T17:52:06.370Z,8.83
2022-10-28T17:54:34.636Z,9.10
2022-10-28T17:57:03.012Z,9.70
2022-10-28T17:59:31.363Z,8.47
2022-10-28T18:01:59.716Z,9.30
2022-10-28T18:04:28.059Z,11.30
2022-10-28T18:06:58.492Z,9.17
2022-10-28T18:09:31.678Z,8.57
2022-10-28T18:12:02.014Z,8.13
2022-10-28T18:14:30.778Z,7.63
2022-10-28T18:16:59.078Z,8.40
2022-10-28T18:19:27.427Z,7.27
2022-10-28T18:21:55.692Z,7.73
2022-10-28T18:24:26.017Z,9.57
2022-10-28T18:26:57.887Z,12.93
2022-10-28T18:29:26.601Z,12.87
2022-10-28T18:31:55.141Z,10.87
2022-10-28T18:34:23.846Z,10.57
2022-10-28T18:36:52.784Z,10.37
2022-10-28T18:39:21.131Z,9.33
2022-10-28T18:41:51.310Z,11.30
2022-10-28T18:44:24.208Z,13.77
2022-10-28T18:46:52.538Z,10.93
2022-10-28T18:49:20.865Z,10.37
2022-10-28T18:51:49.196Z,9.80
2022-10-28T18:54:17.699Z,15.87
2022-10-28T18:56:47.958Z,14.60
2022-10-28T18:59:16.604Z,13.50
2022-10-28T19:01:47.178Z,14.00
2022-10-28T19:04:15.930Z,13.03
2022-10-28T19:06:44.224Z,20.67
2022-10-28T19:09:12.493Z,18.77
2022-10-28T19:11:41.023Z,16.83
2022-10-28T19:14:10.497Z,16.17
2022-10-28T19:16:38.772Z,14.43
2022-10-28T19:19:08.521Z,13.93
2022-10-28T19:21:36.984Z,10.90
2022-10-28T19:24:06.316Z,10.77
2022-10-28T19:26:34.982Z,13.03
2022-10-28T19:29:05.537Z,10.37
2022-10-28T19:31:38.740Z,10.43
2022-10-28T19:34:10.773Z,9.53
2022-10-28T19:36:39.664Z,11.43
2022-10-28T19:39:08.026Z,10.60
2022-10-28T19:41:36.392Z,10.57
2022-10-28T19:44:05.766Z,12.00
2022-10-28T19:46:36.320Z,10.90
2022-10-28T19:49:07.884Z,10.47
2022-10-28T19:51:38.515Z,10.10
2022-10-28T19:54:11.240Z,9.40
2022-10-28T19:56:42.723Z,9.27
2022-10-28T19:59:11.281Z,9.10
2022-10-28T20:01:41.512Z,9.87
2022-10-28T20:04:11.593Z,7.87
2022-10-28T20:06:41.718Z,6.50
2022-10-28T20:09:10.509Z,8.00
2022-10-28T20:11:40.233Z,7.37
2022-10-28T20:14:11.893Z,7.17
2022-10-28T20:16:43.222Z,7.50
2022-10-28T20:19:13.618Z,7.03
2022-10-28T20:21:42.052Z,6.87
2022-10-28T20:24:10.463Z,6.27
2022-10-28T20:26:40.053Z,6.33
2022-10-28T20:29:09.927Z,5.70
2022-10-28T20:31:39.834Z,5.33
2022-10-28T20:34:08.820Z,5.87
2022-10-28T20:36:41.039Z,6.77
2022-10-28T20:39:14.457Z,5.73
2022-10-28T20:41:44.580Z,5.87
2022-10-28T20:44:13.013Z,6.60
2022-10-28T20:46:41.843Z,7.47
2022-10-28T20:49:10.669Z,10.13
2022-10-28T20:51:40.592Z,9.93
2022-10-28T20:54:09.153Z,10.27
2022-10-28T20:56:40.276Z,9.37
2022-10-28T20:59:08.910Z,10.40
2022-10-28T21:01:40.016Z,11.87
2022-10-28T21:04:11.365Z,11.00
2022-10-28T21:06:40.987Z,10.73
2022-10-28T21:09:11.715Z,10.27
2022-10-28T21:11:40.145Z,9.97
2022-10-28T21:14:08.725Z,10.83
2022-10-28T21:16:37.150Z,10.93
2022-10-28T21:19:05.484Z,13.10
2022-10-28T21:21:33.754Z,11.37
2022-10-28T21:24:03.747Z,10.37
2022-10-28T21:26:36.929Z,9.60
2022-10-28T21:29:05.431Z,10.53
2022-10-28T21:31:33.738Z,10.60
2022-10-28T21:34:04.503Z,8.70
2022-10-28T21:36:35.807Z,10.00
2022-10-28T21:39:05.539Z,12.20
2022-10-28T21:41:33.852Z,16.80
2022-10-28T21:44:06.859Z,24.67
2022-10-28T21:46:35.140Z,12.87
2022-10-28T21:49:03.474Z,7.73
2022-10-28T21:51:31.749Z,12.20
2022-10-28T21:54:00.053Z,8.20
2022-10-28T21:56:29.746Z,8.20
2022-10-28T21:58:57.989Z,7.30
2022-10-28T22:01:26.305Z,7.40
2022-10-28T22:03:56.662Z,7.47
2022-10-28T22:06:25.089Z,7.87
2022-10-28T22:08:54.597Z,7.43
2022-10-28T22:11:25.055Z,8.00
2022-10-28T22:13:59.817Z,7.67
2022-10-28T22:16:29.749Z,7.47
2022-10-28T22:19:00.257Z,7.20
2022-10-28T22:21:31.330Z,6.87
2022-10-28T22:23:59.733Z,6.87
2022-10-28T22:26:30.567Z,6.63
2022-10-28T22:29:00.503Z,6.90
2022-10-28T22:31:32.208Z,7.13
2022-10-28T22:34:00.710Z,6.77
2022-10-28T22:36:30.713Z,6.30
2022-10-28T22:38:59.487Z,6.73
2022-10-28T22:41:29.914Z,6.40
2022-10-28T22:44:01.600Z,6.17
2022-10-28T22:46:32.320Z,6.90
2022-10-28T22:49:00.976Z,6.90
2022-10-28T22:51:29.256Z,7.53
2022-10-28T22:53:57.766Z,9.33
2022-10-28T22:56:27.820Z,7.50
2022-10-28T22:59:00.737Z,7.13
2022-10-28T23:01:30.339Z,7.20
2022-10-28T23:03:58.718Z,7.33
2022-10-28T23:06:28.816Z,6.07
2022-10-28T23:08:57.709Z,6.63
2022-10-28T23:11:25.972Z,6.10
2022-10-28T23:13:55.916Z,6.33
2022-10-28T23:16:25.983Z,6.87
2022-10-28T23:18:54.353Z,6.63
2022-10-28T23:21:24.539Z,6.97
2022-10-28T23:23:55.351Z,6.47
2022-10-28T23:26:24.543Z,5.90
2022-10-28T23:28:54.605Z,6.03
2022-10-28T23:31:25.381Z,5.70
2022-10-28T23:33:55.082Z,6.43
2022-10-28T23:36:24.130Z,6.30
2022-10-28T23:38:53.928Z,6.40
2022-10-28T23:41:22.159Z,6.40
2022-10-28T23:43:50.619Z,5.93
2022-10-28T23:46:20.460Z,6.23
2022-10-28T23:48:50.078Z,6.73
2022-10-28T23:51:19.268Z,6.07
2022-10-28T23:53:47.516Z,7.40
2022-10-28T23:56:15.759Z,9.07
2022-10-28T23:58:44.032Z,8.10
